createdAt,value
2019-03-25T00:01:26.643Z,73.50
2019-03-25T00:05:43.116Z,62.83
2019-03-25T00:09:59.638Z,53.53
2019-03-25T00:14:16.233Z,61.60
2019-03-25T00:18:32.870Z,64.43
2019-03-25T00:22:49.505Z,66.07
2019-03-25T00:27:06.003Z,38.83
2019-03-25T00:31:22.542Z,56.87
2019-03-25T00:35:39.028Z,65.40
2019-03-25T00:39:55.665Z,64.50
2019-03-25T00:44:12.204Z,60.30
2019-03-25T00:48:28.969Z,48.50
2019-03-25T00:52:45.827Z,45.83
2019-03-25T00:57:02.314Z,77.40
2019-03-25T01:01:19.061Z,51.47
2019-03-25T01:05:35.656Z,60.03
2019-03-25T01:09:52.186Z,65.20
2019-03-25T01:14:08.973Z,61.57
2019-03-25T01:18:25.507Z,54.13
2019-03-25T01:22:42.332Z,50.33
2019-03-25T01:26:58.854Z,32.23
2019-03-25T01:31:15.390Z,32.30
2019-03-25T01:35:31.896Z,23.23
2019-03-25T01:39:48.829Z,36.60
2019-03-25T01:44:05.345Z,27.33
2019-03-25T01:48:21.870Z,16.90
2019-03-25T01:52:38.373Z,26.00
2019-03-25T01:56:54.859Z,46.20
2019-03-25T02:01:11.379Z,47.97
2019-03-25T02:05:28.228Z,33.87
2019-03-25T02:09:44.823Z,20.10
2019-03-25T02:14:01.369Z,22.40
2019-03-25T02:18:17.975Z,27.70
2019-03-25T02:22:34.869Z,21.77
2019-03-25T02:26:51.429Z,19.20
2019-03-25T02:31:07.929Z,25.27
2019-03-25T02:35:24.452Z,28.70
2019-03-25T02:39:40.941Z,18.40
2019-03-25T02:43:57.486Z,33.77
2019-03-25T02:48:13.983Z,35.67
2019-03-25T02:52:30.481Z,27.03
2019-03-25T02:56:47.019Z,24.57
2019-03-25T03:01:03.900Z,18.53
2019-03-25T03:05:20.454Z,24.73
2019-03-25T03:09:36.984Z,12.20
2019-03-25T03:13:53.507Z,11.40
2019-03-25T03:18:10.118Z,17.33
2019-03-25T03:22:26.916Z,25.13
2019-03-25T03:26:43.784Z,32.17
2019-03-25T03:31:00.295Z,30.30
2019-03-25T03:35:16.805Z,23.20
2019-03-25T03:39:33.318Z,27.03
2019-03-25T03:43:49.940Z,23.50
2019-03-25T03:48:06.450Z,24.03
2019-03-25T03:52:23.272Z,24.00
2019-03-25T03:56:40.474Z,22.50
2019-03-25T04:00:57.018Z,20.50
2019-03-25T04:05:13.631Z,17.00
2019-03-25T04:09:30.343Z,18.90
2019-03-25T04:13:46.952Z,16.00
2019-03-25T04:18:03.885Z,17.07
2019-03-25T04:22:20.408Z,12.37
2019-03-25T04:26:36.914Z,13.53
2019-03-25T04:30:53.455Z,10.90
2019-03-25T04:35:10.857Z,11.57
2019-03-25T04:39:27.411Z,12.60
2019-03-25T04:43:44.336Z,15.10
2019-03-25T04:48:01.125Z,9.03
2019-03-25T04:52:17.963Z,10.40
2019-03-25T04:56:39.601Z,15.27
2019-03-25T05:00:53.318Z,7.87
2019-03-25T05:05:09.963Z,13.33
2019-03-25T05:09:26.387Z,7.63
2019-03-25T05:13:43.168Z,11.17
2019-03-25T05:17:59.725Z,11.33
2019-03-25T05:22:16.227Z,9.43
2019-03-25T05:26:33.259Z,14.17
2019-03-25T05:30:50.121Z,7.50
2019-03-25T05:35:06.915Z,9.70
2019-03-25T05:39:23.435Z,8.40
2019-03-25T05:43:40.257Z,5.87
2019-03-25T05:47:57.806Z,8.80
2019-03-25T05:52:14.311Z,9.03
2019-03-25T05:56:30.850Z,9.47
2019-03-25T06:00:47.441Z,11.08
2019-03-25T06:05:05.221Z,9.43
2019-03-25T06:09:21.679Z,9.13
2019-03-25T06:13:38.222Z,7.57
2019-03-25T06:17:54.723Z,5.77
2019-03-25T06:22:11.545Z,11.97
2019-03-25T06:26:28.362Z,10.57
2019-03-25T06:30:45.163Z,6.87
2019-03-25T06:35:02.604Z,4.50
2019-03-25T06:39:19.156Z,7.30
2019-03-25T06:43:35.674Z,6.43
2019-03-25T06:47:52.178Z,8.13
2019-03-25T06:52:08.795Z,14.03
2019-03-25T06:56:25.325Z,9.47
2019-03-25T07:00:42.048Z,4.90
2019-03-25T07:04:58.563Z,8.67
2019-03-25T07:09:15.013Z,9.70
2019-03-25T07:13:31.902Z,10.33
2019-03-25T07:17:48.700Z,8.93
2019-03-25T07:22:05.530Z,10.10
2019-03-25T07:26:22.036Z,6.47
2019-03-25T07:30:38.565Z,8.17
2019-03-25T07:34:55.092Z,6.53
2019-03-25T07:39:11.594Z,9.67
2019-03-25T07:43:28.130Z,9.97
2019-03-25T07:47:44.923Z,8.40
2019-03-25T07:52:02.057Z,7.93
2019-03-25T07:56:18.619Z,7.57
2019-03-25T08:00:35.117Z,8.30
2019-03-25T08:04:51.711Z,11.30
2019-03-25T08:09:08.260Z,8.57
2019-03-25T08:13:25.134Z,14.50
2019-03-25T08:17:42.198Z,9.03
2019-03-25T08:21:58.680Z,11.77
2019-03-25T08:26:15.509Z,9.47
2019-03-25T08:30:32.417Z,12.10
2019-03-25T08:34:49.270Z,8.73
2019-03-25T08:39:06.093Z,9.57
2019-03-25T08:43:22.607Z,12.07
2019-03-25T08:47:39.401Z,9.10
2019-03-25T08:51:55.952Z,11.43
2019-03-25T08:56:12.480Z,9.93
2019-03-25T09:00:29.324Z,9.27
2019-03-25T09:04:45.913Z,8.60
2019-03-25T09:09:06.455Z,8.37
2019-03-25T09:13:22.943Z,7.67
2019-03-25T09:17:39.445Z,8.87
2019-03-25T09:21:56.279Z,6.47
2019-03-25T09:26:12.795Z,5.17
2019-03-25T09:30:55.095Z,6.63
2019-03-25T09:35:13.171Z,4.10
2019-03-25T09:39:29.656Z,5.90
2019-03-25T09:43:46.491Z,4.30
2019-03-25T09:48:03.416Z,3.97
2019-03-25T09:52:19.907Z,3.80
2019-03-25T09:56:36.719Z,4.80
2019-03-25T10:00:53.156Z,5.03
2019-03-25T10:05:11.921Z,3.03
2019-03-25T10:09:28.451Z,3.37
2019-03-25T10:13:45.263Z,2.70
2019-03-25T10:18:01.919Z,3.97
2019-03-25T10:22:18.403Z,3.27
2019-03-25T10:26:35.254Z,2.60
2019-03-25T10:30:51.875Z,4.73
2019-03-25T10:35:09.008Z,3.47
2019-03-25T10:39:25.573Z,4.33
2019-03-25T10:43:42.149Z,3.97
2019-03-25T10:47:58.887Z,3.60
2019-03-25T10:52:15.359Z,4.03
2019-03-25T10:56:31.849Z,3.10
2019-03-25T11:00:48.575Z,2.53
2019-03-25T11:05:06.007Z,2.63
2019-03-25T11:09:22.927Z,3.20
2019-03-25T11:13:39.487Z,2.80
2019-03-25T11:17:56.091Z,2.43
2019-03-25T11:22:12.598Z,3.80
2019-03-25T11:26:29.135Z,4.70
2019-03-25T11:30:54.461Z,2.20
2019-03-25T11:35:11.351Z,3.53
2019-03-25T11:39:28.102Z,1.80
2019-03-25T11:43:44.625Z,3.47
2019-03-25T11:48:01.589Z,3.33
2019-03-25T11:52:18.567Z,2.03
2019-03-25T11:56:35.379Z,3.33
2019-03-25T12:00:51.902Z,2.57
2019-03-25T12:05:09.066Z,3.23
2019-03-25T12:09:25.653Z,1.40
2019-03-25T12:13:42.145Z,2.20
2019-03-25T12:17:58.717Z,3.13
2019-03-25T12:22:15.618Z,2.23
2019-03-25T12:26:32.121Z,2.50
2019-03-25T12:30:50.155Z,2.33
2019-03-25T12:35:07.086Z,3.17
2019-03-25T12:39:23.625Z,3.47
2019-03-25T12:43:40.152Z,2.67
2019-03-25T12:47:56.763Z,3.33
2019-03-25T12:52:13.278Z,2.57
2019-03-25T12:56:29.772Z,2.10
2019-03-25T13:00:46.709Z,5.83
2019-03-25T13:05:05.028Z,4.43
2019-03-25T13:09:21.957Z,2.83
2019-03-25T13:13:38.816Z,3.30
2019-03-25T13:17:55.707Z,2.37
2019-03-25T13:22:12.406Z,2.23
2019-03-25T13:26:29.244Z,2.03
2019-03-25T13:30:45.823Z,1.70
2019-03-25T13:35:04.597Z,3.60
2019-03-25T13:39:21.400Z,1.77
2019-03-25T13:43:37.928Z,1.23
2019-03-25T13:47:54.736Z,0.80
2019-03-25T13:52:11.236Z,1.40
2019-03-25T13:56:27.771Z,1.40
2019-03-25T14:00:44.283Z,0.80
2019-03-25T14:05:00.809Z,0.57
2019-03-25T14:09:17.612Z,0.50
2019-03-25T14:13:34.410Z,1.70
2019-03-25T14:17:50.969Z,0.60
2019-03-25T14:22:07.577Z,0.50
2019-03-25T14:26:24.103Z,0.90
2019-03-25T14:30:40.627Z,1.10
2019-03-25T14:34:57.122Z,1.00
2019-03-25T14:39:13.900Z,1.20
2019-03-25T14:43:30.377Z,1.13
2019-03-25T14:47:47.074Z,1.10
2019-03-25T14:52:03.699Z,2.10
2019-03-25T14:56:20.193Z,0.83
2019-03-25T15:00:36.736Z,1.53
2019-03-25T15:04:53.247Z,0.90
2019-03-25T15:09:10.042Z,1.60
2019-03-25T15:13:26.605Z,1.70
2019-03-25T15:17:43.091Z,1.97
2019-03-25T15:22:00.410Z,1.50
2019-03-25T15:26:16.987Z,1.83
2019-03-25T15:30:36.284Z,1.67
2019-03-25T15:34:51.919Z,2.00
2019-03-25T15:39:08.658Z,1.90
2019-03-25T15:43:25.307Z,2.43
2019-03-25T15:47:45.779Z,2.10
2019-03-25T15:52:00.997Z,2.10
2019-03-25T15:56:17.676Z,2.40
2019-03-25T16:00:34.307Z,2.70
2019-03-25T16:04:50.811Z,2.47
2019-03-25T16:09:07.641Z,2.40
2019-03-25T16:13:24.364Z,2.13
2019-03-25T16:17:43.133Z,2.50
2019-03-25T16:22:00.557Z,2.37
2019-03-25T16:26:17.188Z,2.60
2019-03-25T16:30:33.823Z,2.43
2019-03-25T16:34:50.465Z,3.67
2019-03-25T16:39:07.749Z,2.80
2019-03-25T16:43:24.302Z,3.27
2019-03-25T16:47:40.862Z,2.13
2019-03-25T16:51:57.404Z,2.70
2019-03-25T16:56:14.015Z,2.07
2019-03-25T17:00:31.362Z,2.70
2019-03-25T17:04:47.976Z,4.10
2019-03-25T17:09:05.835Z,3.33
2019-03-25T17:13:22.616Z,4.63
2019-03-25T17:17:40.369Z,2.77
2019-03-25T17:21:58.431Z,4.23
2019-03-25T17:26:15.475Z,3.17
2019-03-25T17:30:32.093Z,1.37
2019-03-25T17:34:49.027Z,3.33
2019-03-25T17:39:07.755Z,2.03
2019-03-25T17:43:24.281Z,1.50
2019-03-25T17:47:40.825Z,2.63
2019-03-25T17:51:57.383Z,5.17
2019-03-25T17:56:13.920Z,2.33
2019-03-25T18:00:54.203Z,2.03
2019-03-25T18:05:10.859Z,3.70
2019-03-25T18:09:29.209Z,2.90
2019-03-25T18:13:46.038Z,2.60
2019-03-25T18:18:04.714Z,4.57
2019-03-25T18:22:21.519Z,2.90
2019-03-25T18:26:38.034Z,2.83
2019-03-25T18:30:55.068Z,2.80
2019-03-25T18:35:22.020Z,2.90
2019-03-25T18:39:39.114Z,2.57
2019-03-25T18:43:57.409Z,5.03
2019-03-25T18:48:14.050Z,3.23
2019-03-25T18:52:30.627Z,2.70
2019-03-25T18:56:47.357Z,2.57
2019-03-25T19:01:04.393Z,3.90
2019-03-25T19:05:21.798Z,3.90
2019-03-25T19:09:39.215Z,5.13
2019-03-25T19:13:55.740Z,3.30
2019-03-25T19:18:13.498Z,8.83
2019-03-25T19:22:32.283Z,6.80
2019-03-25T19:26:49.127Z,7.40
2019-03-25T19:31:05.961Z,5.77
2019-03-25T19:35:25.453Z,7.60
2019-03-25T19:39:41.998Z,5.93
2019-03-25T19:43:58.635Z,4.27
2019-03-25T19:48:15.838Z,7.60
2019-03-25T19:52:32.785Z,13.43
2019-03-25T19:56:49.876Z,11.57
2019-03-25T20:01:06.572Z,10.27
2019-03-25T20:05:23.250Z,9.87
2019-03-25T20:09:42.459Z,12.20
2019-03-25T20:13:58.472Z,10.43
2019-03-25T20:18:15.422Z,9.33
2019-03-25T20:22:31.943Z,9.13
2019-03-25T20:26:48.834Z,6.23
2019-03-25T20:31:05.582Z,7.10
2019-03-25T20:35:24.055Z,21.83
2019-03-25T20:39:40.806Z,26.53
2019-03-25T20:43:57.370Z,19.50
2019-03-25T20:48:13.891Z,20.77
2019-03-25T20:52:30.521Z,33.37
2019-03-25T20:56:47.112Z,19.63
2019-03-25T21:01:04.046Z,21.07
2019-03-25T21:05:21.621Z,15.07
2019-03-25T21:09:38.297Z,11.23
2019-03-25T21:13:55.154Z,12.47
2019-03-25T21:18:13.288Z,16.00
2019-03-25T21:22:29.862Z,16.53
2019-03-25T21:26:46.455Z,7.10
2019-03-25T21:31:03.161Z,13.20
2019-03-25T21:35:20.158Z,9.40
2019-03-25T21:39:37.106Z,8.50
2019-03-25T21:43:53.623Z,11.97
2019-03-25T21:48:10.447Z,7.63
2019-03-25T21:52:27.015Z,7.93
2019-03-25T21:56:43.977Z,7.80
2019-03-25T22:01:00.670Z,7.63
2019-03-25T22:05:18.211Z,7.47
2019-03-25T22:09:35.355Z,7.07
2019-03-25T22:13:51.839Z,6.77
2019-03-25T22:18:08.381Z,4.93
2019-03-25T22:22:24.890Z,8.83
2019-03-25T22:26:41.520Z,7.23
2019-03-25T22:30:58.116Z,5.83
2019-03-25T22:35:14.715Z,6.23
2019-03-25T22:39:31.313Z,11.83
2019-03-25T22:43:47.891Z,7.93
2019-03-25T22:48:07.291Z,11.13
2019-03-25T22:52:24.075Z,10.30
2019-03-25T22:56:40.619Z,6.70
2019-03-25T23:00:57.400Z,8.77
2019-03-25T23:05:14.050Z,7.63
2019-03-25T23:09:30.657Z,10.77
2019-03-25T23:13:47.283Z,7.63
2019-03-25T23:18:03.872Z,11.07
2019-03-25T23:22:20.686Z,10.70
2019-03-25T23:26:37.220Z,13.30
2019-03-25T23:30:53.847Z,7.70
2019-03-25T23:35:10.830Z,9.87
2019-03-25T23:39:27.780Z,11.90
2019-03-25T23:43:45.334Z,14.67
2019-03-25T23:48:02.162Z,10.97
2019-03-25T23:52:18.704Z,9.50
2019-03-25T23:56:35.548Z,9.97
